createdAt,value
2022-10-11T00:01:03.038Z,13.47
2022-10-11T00:03:28.746Z,13.39
2022-10-11T00:05:54.521Z,13.34
2022-10-11T00:08:21.113Z,13.31
2022-10-11T00:10:56.272Z,13.30
2022-10-11T00:13:21.996Z,13.34
2022-10-11T00:15:48.908Z,13.33
2022-10-11T00:18:14.654Z,13.35
2022-10-11T00:20:40.362Z,13.34
2022-10-11T00:23:06.294Z,13.29
2022-10-11T00:25:32.231Z,13.26
2022-10-11T00:27:57.984Z,13.26
2022-10-11T00:30:23.806Z,13.28
2022-10-11T00:32:49.780Z,13.31
2022-10-11T00:35:15.890Z,13.31
2022-10-11T00:37:41.567Z,13.33
2022-10-11T00:40:10.295Z,13.35
2022-10-11T00:42:36.021Z,13.36
2022-10-11T00:45:26.482Z,13.34
2022-10-11T00:47:56.206Z,13.31
2022-10-11T00:50:23.265Z,13.29
2022-10-11T00:52:54.774Z,13.24
2022-10-11T00:55:24.496Z,13.19
2022-10-11T00:57:52.430Z,13.13
2022-10-11T01:00:19.309Z,13.10
2022-10-11T01:02:45.562Z,13.03
2022-10-11T01:05:30.685Z,12.98
2022-10-11T01:07:59.256Z,12.90
2022-10-11T01:10:26.130Z,12.83
2022-10-11T01:13:10.508Z,12.76
2022-10-11T01:15:50.002Z,12.67
2022-10-11T01:18:27.876Z,12.58
2022-10-11T01:21:04.095Z,12.49
2022-10-11T01:24:08.800Z,12.46
2022-10-11T01:26:40.530Z,12.41
2022-10-11T01:29:41.478Z,12.36
2022-10-11T01:32:20.566Z,12.28
2022-10-11T01:35:01.338Z,12.27
2022-10-11T01:37:35.934Z,12.26
2022-10-11T01:40:07.295Z,12.25
2022-10-11T01:42:38.552Z,12.20
2022-10-11T01:45:07.256Z,12.16
2022-10-11T01:47:32.956Z,12.10
2022-10-11T01:50:01.147Z,12.03
2022-10-11T01:52:30.836Z,11.99
2022-10-11T01:55:09.713Z,11.98
2022-10-11T01:58:09.046Z,11.99
2022-10-11T02:01:06.130Z,12.03
2022-10-11T02:03:44.165Z,12.12
2022-10-11T02:06:15.268Z,12.21
2022-10-11T02:08:49.237Z,12.32
2022-10-11T02:11:24.003Z,12.41
2022-10-11T02:13:59.561Z,12.49
2022-10-11T02:16:39.816Z,12.57
2022-10-11T02:19:08.212Z,12.65
2022-10-11T02:21:37.136Z,12.67
2022-10-11T02:24:09.023Z,12.66
2022-10-11T02:26:38.468Z,12.71
2022-10-11T02:29:08.986Z,12.74
2022-10-11T02:31:35.577Z,12.76
2022-10-11T02:34:08.375Z,12.68
2022-10-11T02:36:50.097Z,12.62
2022-10-11T02:39:36.520Z,12.60
2022-10-11T02:42:06.458Z,12.58
2022-10-11T02:44:37.623Z,12.65
2022-10-11T02:47:04.376Z,12.71
2022-10-11T02:49:31.204Z,12.78
2022-10-11T02:51:57.957Z,12.83
2022-10-11T02:54:25.079Z,12.88
2022-10-11T02:56:50.775Z,12.92
2022-10-11T02:59:16.560Z,12.96
2022-10-11T03:01:42.663Z,12.99
2022-10-11T03:04:08.560Z,12.99
2022-10-11T03:06:34.223Z,12.99
2022-10-11T03:08:59.938Z,12.96
2022-10-11T03:11:25.664Z,12.97
2022-10-11T03:13:51.645Z,12.98
2022-10-11T03:16:17.627Z,13.01
2022-10-11T03:18:43.823Z,13.03
2022-10-11T03:21:09.535Z,13.06
2022-10-11T03:23:35.233Z,13.09
2022-10-11T03:26:00.924Z,13.09
2022-10-11T03:28:26.989Z,13.09
2022-10-11T03:30:53.158Z,13.12
2022-10-11T03:33:19.024Z,13.13
2022-10-11T03:35:46.699Z,13.13
2022-10-11T03:38:15.445Z,13.15
2022-10-11T03:40:42.412Z,13.15
2022-10-11T03:43:08.440Z,13.16
2022-10-11T03:45:34.757Z,13.12
2022-10-11T03:48:00.442Z,13.06
2022-10-11T03:50:26.138Z,13.02
2022-10-11T03:52:52.857Z,13.01
2022-10-11T03:55:18.529Z,13.00
2022-10-11T03:57:44.310Z,13.00
2022-10-11T04:00:10.286Z,13.01
2022-10-11T04:02:39.221Z,13.05
2022-10-11T04:05:05.987Z,13.09
2022-10-11T04:07:32.544Z,13.10
2022-10-11T04:09:58.424Z,13.09
2022-10-11T04:12:24.560Z,13.12
2022-10-11T04:14:50.498Z,13.13
2022-10-11T04:17:16.219Z,13.13
2022-10-11T04:19:42.028Z,13.13
2022-10-11T04:22:07.826Z,13.13
2022-10-11T04:24:33.577Z,13.07
2022-10-11T04:26:59.583Z,13.09
2022-10-11T04:29:28.846Z,13.06
2022-10-11T04:31:58.075Z,13.05
2022-10-11T04:34:23.916Z,13.07
2022-10-11T04:36:50.191Z,13.07
2022-10-11T04:39:15.964Z,13.08
2022-10-11T04:41:41.718Z,13.09
2022-10-11T04:44:07.409Z,13.06
2022-10-11T04:46:33.199Z,13.04
2022-10-11T04:48:59.048Z,13.06
2022-10-11T04:51:25.170Z,13.08
2022-10-11T04:53:51.467Z,13.10
2022-10-11T04:56:17.870Z,13.09
2022-10-11T04:58:44.730Z,12.99
2022-10-11T05:01:10.806Z,12.89
2022-10-11T05:03:37.498Z,12.79
2022-10-11T05:06:05.932Z,12.82
2022-10-11T05:08:32.837Z,12.84
2022-10-11T05:11:06.750Z,12.86
2022-10-11T05:13:34.566Z,12.85
2022-10-11T05:16:00.956Z,12.86
2022-10-11T05:18:27.292Z,12.86
2022-10-11T05:21:01.866Z,12.83
2022-10-11T05:23:29.109Z,12.81
2022-10-11T05:25:55.053Z,12.77
2022-10-11T05:28:21.081Z,12.76
2022-10-11T05:30:46.819Z,12.77
2022-10-11T05:33:12.506Z,12.77
2022-10-11T05:35:38.290Z,12.72
2022-10-11T05:38:04.560Z,12.71
2022-10-11T05:40:30.285Z,12.70
2022-10-11T05:42:56.399Z,12.69
2022-10-11T05:45:22.204Z,12.65
2022-10-11T05:47:48.031Z,12.66
2022-10-11T05:50:13.746Z,12.63
2022-10-11T05:52:39.519Z,12.57
2022-10-11T05:55:05.660Z,12.54
2022-10-11T05:57:31.560Z,12.53
2022-10-11T05:59:57.324Z,12.58
2022-10-11T06:02:22.998Z,12.59
2022-10-11T06:04:48.803Z,12.57
2022-10-11T06:07:14.492Z,12.58
2022-10-11T06:09:40.158Z,12.56
2022-10-11T06:12:06.061Z,12.52
2022-10-11T06:14:31.783Z,12.49
2022-10-11T06:16:57.854Z,12.55
2022-10-11T06:19:23.646Z,12.56
2022-10-11T06:21:49.584Z,12.52
2022-10-11T06:24:15.286Z,12.58
2022-10-11T06:26:40.964Z,12.65
2022-10-11T06:29:06.956Z,12.59
2022-10-11T06:31:32.620Z,12.66
2022-10-11T06:33:58.880Z,12.58
2022-10-11T06:36:25.360Z,12.60
2022-10-11T06:38:52.157Z,12.60
2022-10-11T06:41:23.597Z,12.66
2022-10-11T06:43:49.940Z,12.67
2022-10-11T06:46:17.190Z,12.73
2022-10-11T06:48:44.446Z,12.81
2022-10-11T06:51:14.307Z,12.91
2022-10-11T06:53:40.864Z,12.95
2022-10-11T06:56:09.953Z,12.98
2022-10-11T06:58:36.356Z,13.02
2022-10-11T07:01:05.020Z,13.02
2022-10-11T07:03:30.950Z,13.06
2022-10-11T07:06:05.360Z,13.05
2022-10-11T07:08:31.550Z,13.02
2022-10-11T07:11:09.413Z,13.06
2022-10-11T07:13:36.212Z,13.12
2022-10-11T07:16:07.979Z,13.24
2022-10-11T07:18:34.635Z,13.34
2022-10-11T07:21:12.722Z,13.41
2022-10-11T07:23:38.648Z,13.48
2022-10-11T07:26:06.576Z,13.56
2022-10-11T07:28:34.095Z,13.61
2022-10-11T07:31:05.313Z,13.68
2022-10-11T07:33:31.171Z,13.58
2022-10-11T07:35:57.169Z,13.59
2022-10-11T07:38:23.132Z,13.54
2022-10-11T07:40:49.080Z,13.48
2022-10-11T07:43:14.842Z,13.48
2022-10-11T07:45:44.320Z,13.61
2022-10-11T07:48:10.535Z,13.73
2022-10-11T07:50:37.008Z,13.80
2022-10-11T07:53:03.246Z,13.98
2022-10-11T07:55:30.886Z,14.09
2022-10-11T07:57:57.368Z,14.15
2022-10-11T08:00:23.430Z,14.22
2022-10-11T08:02:49.176Z,14.36
2022-10-11T08:05:15.170Z,14.55
2022-10-11T08:07:40.913Z,14.71
2022-10-11T08:10:07.740Z,14.66
2022-10-11T08:12:33.878Z,14.64
2022-10-11T08:14:59.938Z,14.78
2022-10-11T08:17:25.886Z,14.93
2022-10-11T08:19:51.943Z,14.92
2022-10-11T08:22:17.663Z,14.99
2022-10-11T08:24:43.538Z,15.13
2022-10-11T08:27:09.277Z,15.23
2022-10-11T08:29:35.129Z,15.32
2022-10-11T08:32:00.814Z,15.17
2022-10-11T08:34:26.672Z,14.92
2022-10-11T08:36:52.379Z,15.04
2022-10-11T08:39:18.150Z,15.07
2022-10-11T08:41:49.519Z,15.01
2022-10-11T08:44:58.222Z,14.90
2022-10-11T08:47:27.877Z,15.10
2022-10-11T08:49:55.232Z,15.32
2022-10-11T08:52:22.647Z,15.38
2022-10-11T08:54:59.196Z,15.39
2022-10-11T08:57:28.077Z,15.56
2022-10-11T08:59:58.547Z,15.66
2022-10-11T09:03:09.730Z,15.74
2022-10-11T09:05:52.784Z,15.78
2022-10-11T09:08:51.113Z,15.75
2022-10-11T09:12:00.417Z,15.75
2022-10-11T09:14:44.779Z,15.98
2022-10-11T09:17:29.030Z,16.08
2022-10-11T09:20:33.066Z,16.28
2022-10-11T09:23:29.547Z,16.31
2022-10-11T09:26:05.695Z,16.45
2022-10-11T09:28:50.562Z,16.43
2022-10-11T09:31:16.706Z,16.42
2022-10-11T09:33:47.360Z,16.49
2022-10-11T09:36:38.777Z,16.42
2022-10-11T09:39:24.049Z,16.56
2022-10-11T09:41:56.190Z,16.71
2022-10-11T09:44:24.059Z,17.10
2022-10-11T09:46:52.283Z,17.42
2022-10-11T09:49:20.941Z,17.68
2022-10-11T09:51:52.448Z,17.93
2022-10-11T09:54:26.517Z,18.11
2022-10-11T09:56:52.417Z,18.02
2022-10-11T09:59:20.962Z,17.93
2022-10-11T10:01:46.794Z,17.71
2022-10-11T10:04:19.231Z,17.72
2022-10-11T10:06:44.969Z,17.83
2022-10-11T10:09:30.297Z,17.88
2022-10-11T10:11:56.255Z,17.81
2022-10-11T10:14:28.026Z,17.69
2022-10-11T10:17:00.691Z,17.57
2022-10-11T10:19:26.837Z,17.58
2022-10-11T10:21:54.734Z,17.70
2022-10-11T10:24:32.676Z,17.76
2022-10-11T10:27:14.183Z,17.80
2022-10-11T10:29:40.801Z,17.93
2022-10-11T10:32:20.516Z,17.87
2022-10-11T10:35:02.750Z,17.97
2022-10-11T10:37:49.698Z,17.85
2022-10-11T10:40:37.101Z,17.76
2022-10-11T10:43:03.261Z,17.79
2022-10-11T10:45:52.397Z,17.71
2022-10-11T10:49:18.748Z,17.89
2022-10-11T10:51:37.783Z,18.09
2022-10-11T10:54:21.731Z,18.21
2022-10-11T10:57:01.008Z,18.47
2022-10-11T10:59:45.208Z,18.25
2022-10-11T11:02:40.606Z,18.35
2022-10-11T11:05:25.494Z,18.60
2022-10-11T11:08:02.427Z,18.56
2022-10-11T11:10:35.928Z,18.45
2022-10-11T11:13:07.623Z,18.42
2022-10-11T11:15:47.227Z,18.34
2022-10-11T11:18:37.805Z,18.29
2022-10-11T11:21:21.537Z,18.31
2022-10-11T11:24:42.670Z,18.34
2022-10-11T11:27:25.532Z,18.05
2022-10-11T11:30:12.764Z,17.81
2022-10-11T11:33:14.950Z,17.63
2022-10-11T11:35:44.649Z,17.48
2022-10-11T11:38:27.114Z,17.42
2022-10-11T11:40:59.767Z,17.26
2022-10-11T11:43:33.048Z,17.18
2022-10-11T11:46:01.518Z,16.91
2022-10-11T11:48:27.256Z,17.14
2022-10-11T11:51:13.359Z,17.45
2022-10-11T11:53:51.064Z,17.81
2022-10-11T11:56:26.962Z,18.13
2022-10-11T11:59:09.058Z,18.35
2022-10-11T12:01:43.781Z,18.49
2022-10-11T12:04:24.250Z,18.58
2022-10-11T12:07:16.267Z,18.84
2022-10-11T12:09:49.590Z,18.46
2022-10-11T12:12:28.972Z,18.25
2022-10-11T12:15:31.090Z,18.18
2022-10-11T12:17:56.897Z,18.15
2022-10-11T12:20:37.202Z,18.13
2022-10-11T12:23:29.275Z,18.06
2022-10-11T12:26:29.007Z,17.81
2022-10-11T12:29:16.604Z,17.76
2022-10-11T12:31:46.279Z,17.94
2022-10-11T12:34:33.086Z,18.13
2022-10-11T12:37:04.425Z,18.28
2022-10-11T12:39:54.092Z,18.49
2022-10-11T12:42:19.699Z,18.61
2022-10-11T12:45:14.093Z,18.89
2022-10-11T12:47:47.625Z,19.07
2022-10-11T12:50:42.923Z,18.93
2022-10-11T12:53:26.480Z,18.81
2022-10-11T12:56:11.493Z,18.54
2022-10-11T12:58:40.920Z,18.24
2022-10-11T13:01:11.199Z,18.06
2022-10-11T13:03:45.917Z,17.92
2022-10-11T13:06:24.126Z,17.99
2022-10-11T13:08:56.268Z,17.91
2022-10-11T13:11:28.777Z,18.01
2022-10-11T13:14:04.565Z,17.98
2022-10-11T13:16:46.873Z,17.94
2022-10-11T13:19:13.922Z,17.75
2022-10-11T13:21:39.656Z,17.70
2022-10-11T13:24:18.037Z,17.68
2022-10-11T13:26:45.861Z,17.79
2022-10-11T13:29:38.916Z,17.76
2022-10-11T13:32:10.122Z,17.46
2022-10-11T13:34:39.558Z,17.38
2022-10-11T13:37:06.369Z,17.39
2022-10-11T13:39:37.890Z,17.33
2022-10-11T13:42:12.923Z,17.34
2022-10-11T13:44:40.486Z,17.31
2022-10-11T13:47:12.776Z,17.27
2022-10-11T13:49:39.606Z,17.17
2022-10-11T13:52:18.533Z,17.15
2022-10-11T13:54:59.567Z,17.15
2022-10-11T13:57:39.843Z,17.15
2022-10-11T14:00:14.372Z,17.29
2022-10-11T14:02:55.292Z,17.21
2022-10-11T14:05:33.921Z,17.28
2022-10-11T14:08:05.839Z,17.30
2022-10-11T14:10:32.802Z,17.15
2022-10-11T14:13:24.778Z,17.10
2022-10-11T14:16:08.855Z,16.98
2022-10-11T14:18:49.741Z,16.95
2022-10-11T14:21:18.152Z,16.97
2022-10-11T14:23:50.663Z,17.02
2022-10-11T14:26:19.045Z,17.16
2022-10-11T14:28:48.377Z,17.23
2022-10-11T14:31:14.268Z,17.23
2022-10-11T14:33:39.967Z,17.14
2022-10-11T14:36:06.017Z,16.84
2022-10-11T14:38:31.892Z,16.83
2022-10-11T14:40:57.578Z,16.85
2022-10-11T14:43:23.291Z,16.81
2022-10-11T14:45:49.224Z,16.67
2022-10-11T14:48:15.585Z,16.61
2022-10-11T14:50:50.561Z,16.68
2022-10-11T14:53:16.555Z,16.62
2022-10-11T14:55:42.863Z,16.60
2022-10-11T14:58:10.858Z,16.60
2022-10-11T15:00:36.976Z,16.62
2022-10-11T15:03:04.488Z,16.61
2022-10-11T15:05:33.920Z,16.65
2022-10-11T15:08:00.876Z,16.67
2022-10-11T15:10:37.435Z,16.65
2022-10-11T15:13:04.529Z,16.64
2022-10-11T15:15:34.602Z,16.52
2022-10-11T15:18:01.244Z,16.52
2022-10-11T15:20:32.495Z,16.48
2022-10-11T15:22:59.662Z,16.36
2022-10-11T15:25:27.206Z,16.31
2022-10-11T15:27:53.098Z,16.36
2022-10-11T15:30:28.614Z,16.35
2022-10-11T15:32:54.733Z,16.36
2022-10-11T15:35:22.274Z,16.19
2022-10-11T15:37:52.110Z,16.21
2022-10-11T15:40:24.040Z,16.12
2022-10-11T15:42:51.290Z,16.06
2022-10-11T15:45:19.405Z,15.96
2022-10-11T15:47:45.601Z,15.92
2022-10-11T15:50:33.504Z,15.90
2022-10-11T15:53:01.628Z,15.90
2022-10-11T15:55:27.946Z,15.83
2022-10-11T15:57:53.648Z,15.78
2022-10-11T16:00:22.274Z,15.71
2022-10-11T16:02:51.088Z,15.61
2022-10-11T16:05:21.077Z,15.54
2022-10-11T16:07:47.317Z,15.47
2022-10-11T16:10:13.293Z,15.42
2022-10-11T16:12:39.377Z,15.35
2022-10-11T16:15:05.599Z,15.27
2022-10-11T16:17:31.657Z,15.24
2022-10-11T16:19:57.415Z,15.16
2022-10-11T16:22:23.697Z,15.14
2022-10-11T16:24:49.503Z,15.04
2022-10-11T16:27:18.837Z,15.02
2022-10-11T16:29:44.902Z,14.91
2022-10-11T16:32:10.701Z,14.85
2022-10-11T16:34:36.565Z,14.78
2022-10-11T16:37:02.421Z,14.75
2022-10-11T16:39:28.555Z,14.71
2022-10-11T16:41:54.284Z,14.67
2022-10-11T16:44:24.507Z,14.65
2022-10-11T16:46:51.184Z,14.62
2022-10-11T16:49:19.123Z,14.58
2022-10-11T16:51:45.239Z,14.60
2022-10-11T16:54:11.114Z,14.54
2022-10-11T16:56:39.884Z,14.56
2022-10-11T16:59:06.705Z,14.57
2022-10-11T17:01:32.652Z,14.51
2022-10-11T17:04:04.463Z,14.54
2022-10-11T17:06:30.157Z,14.56
2022-10-11T17:08:56.253Z,14.51
2022-10-11T17:11:22.619Z,14.46
2022-10-11T17:13:49.869Z,14.40
2022-10-11T17:16:16.920Z,14.35
2022-10-11T17:18:42.681Z,14.30
2022-10-11T17:21:11.833Z,14.20
2022-10-11T17:23:38.015Z,14.12
2022-10-11T17:26:10.977Z,14.08
2022-10-11T17:28:37.180Z,14.03
2022-10-11T17:31:04.835Z,14.03
2022-10-11T17:33:31.469Z,14.00
2022-10-11T17:35:59.088Z,13.95
2022-10-11T17:38:26.680Z,13.92
2022-10-11T17:41:00.730Z,13.89
2022-10-11T17:43:27.403Z,13.85
2022-10-11T17:45:57.545Z,13.82
2022-10-11T17:48:23.672Z,13.75
2022-10-11T17:50:50.727Z,13.66
2022-10-11T17:53:17.312Z,13.58
2022-10-11T17:55:44.027Z,13.56
2022-10-11T17:58:11.204Z,13.50
2022-10-11T18:00:40.087Z,13.49
2022-10-11T18:03:06.383Z,13.46
2022-10-11T18:05:32.728Z,13.43
2022-10-11T18:07:58.839Z,13.40
2022-10-11T18:10:24.640Z,13.33
2022-10-11T18:12:54.088Z,13.28
2022-10-11T18:15:19.787Z,13.21
2022-10-11T18:17:47.122Z,13.14
2022-10-11T18:20:13.541Z,13.12
2022-10-11T18:22:39.326Z,13.09
2022-10-11T18:25:05.245Z,13.07
2022-10-11T18:27:31.002Z,13.10
2022-10-11T18:29:56.896Z,13.10
2022-10-11T18:32:22.648Z,13.11
2022-10-11T18:34:48.748Z,13.17
2022-10-11T18:37:14.441Z,13.17
2022-10-11T18:39:40.244Z,13.23
2022-10-11T18:42:06.098Z,13.25
2022-10-11T18:44:32.074Z,13.26
2022-10-11T18:46:58.154Z,13.29
2022-10-11T18:49:24.808Z,13.33
2022-10-11T18:51:50.494Z,13.37
2022-10-11T18:54:20.290Z,13.40
2022-10-11T18:56:47.129Z,13.41
2022-10-11T18:59:12.827Z,13.40
2022-10-11T19:01:40.849Z,13.37
2022-10-11T19:04:11.051Z,13.33
2022-10-11T19:06:39.940Z,13.38
2022-10-11T19:09:09.576Z,13.39
2022-10-11T19:11:36.501Z,13.39
2022-10-11T19:14:14.458Z,13.43
2022-10-11T19:16:48.785Z,13.39
2022-10-11T19:19:15.339Z,13.35
2022-10-11T19:21:41.807Z,13.36
2022-10-11T19:24:08.293Z,13.34
2022-10-11T19:26:36.857Z,13.35
2022-10-11T19:29:13.897Z,13.39
2022-10-11T19:31:42.802Z,13.42
2022-10-11T19:34:09.492Z,13.48
2022-10-11T19:36:36.999Z,13.51
2022-10-11T19:39:04.425Z,13.49
2022-10-11T19:41:30.211Z,13.51
2022-10-11T19:43:57.443Z,13.49
2022-10-11T19:46:44.546Z,13.50
2022-10-11T19:49:11.250Z,13.44
2022-10-11T19:51:37.483Z,13.39
2022-10-11T19:54:09.346Z,13.39
2022-10-11T19:56:35.773Z,13.39
2022-10-11T19:59:02.010Z,13.39
2022-10-11T20:01:30.257Z,13.43
2022-10-11T20:04:02.891Z,13.42
2022-10-11T20:06:29.365Z,13.41
2022-10-11T20:09:10.583Z,13.40
2022-10-11T20:11:41.677Z,13.43
2022-10-11T20:14:08.045Z,13.42
2022-10-11T20:16:34.019Z,13.35
2022-10-11T20:19:01.235Z,13.30
2022-10-11T20:21:29.031Z,13.23
2022-10-11T20:24:02.509Z,13.21
2022-10-11T20:26:28.683Z,13.15
2022-10-11T20:28:56.171Z,13.13
2022-10-11T20:31:29.437Z,13.12
2022-10-11T20:33:57.295Z,13.15
2022-10-11T20:36:25.956Z,13.16
2022-10-11T20:38:51.978Z,13.17
2022-10-11T20:41:21.047Z,13.16
2022-10-11T20:43:48.966Z,13.14
2022-10-11T20:46:17.008Z,13.15
2022-10-11T20:48:48.784Z,13.12
2022-10-11T20:51:14.726Z,13.11
2022-10-11T20:53:40.426Z,13.10
2022-10-11T20:56:09.935Z,13.10
2022-10-11T20:58:36.720Z,13.10
2022-10-11T21:01:15.298Z,13.05
2022-10-11T21:03:44.730Z,13.07
2022-10-11T21:06:10.946Z,13.10
2022-10-11T21:08:37.905Z,13.11
2022-10-11T21:11:05.014Z,13.14
2022-10-11T21:13:30.952Z,13.16
2022-10-11T21:16:12.271Z,13.19
2022-10-11T21:18:38.717Z,13.18
2022-10-11T21:21:09.891Z,13.17
2022-10-11T21:23:35.818Z,13.17
2022-10-11T21:26:07.324Z,13.13
2022-10-11T21:28:33.192Z,13.08
2022-10-11T21:31:28.534Z,13.04
2022-10-11T21:33:58.755Z,13.02
2022-10-11T21:36:24.558Z,12.99
2022-10-11T21:38:51.510Z,12.97
2022-10-11T21:41:20.053Z,12.95
2022-10-11T21:43:46.661Z,12.94
2022-10-11T21:46:19.831Z,12.91
2022-10-11T21:48:46.334Z,12.91
2022-10-11T21:51:19.716Z,12.89
2022-10-11T21:53:46.152Z,12.88
2022-10-11T21:56:11.934Z,12.84
2022-10-11T21:58:37.785Z,12.81
2022-10-11T22:01:03.547Z,12.80
2022-10-11T22:03:29.302Z,12.80
2022-10-11T22:05:54.978Z,12.76
2022-10-11T22:08:20.820Z,12.77
2022-10-11T22:10:55.468Z,12.77
2022-10-11T22:13:22.936Z,12.77
2022-10-11T22:15:48.778Z,12.73
2022-10-11T22:18:14.696Z,12.71
2022-10-11T22:20:40.486Z,12.71
2022-10-11T22:23:06.193Z,12.73
2022-10-11T22:25:35.975Z,12.77
2022-10-11T22:28:01.878Z,12.80
2022-10-11T22:30:27.612Z,12.80
2022-10-11T22:32:53.383Z,12.81
2022-10-11T22:35:19.219Z,12.79
2022-10-11T22:37:45.066Z,12.78
2022-10-11T22:40:11.577Z,12.78
2022-10-11T22:42:37.264Z,12.76
2022-10-11T22:45:03.776Z,12.75
2022-10-11T22:47:29.463Z,12.74
2022-10-11T22:49:55.139Z,12.70
2022-10-11T22:52:20.845Z,12.65
2022-10-11T22:54:46.530Z,12.63
2022-10-11T22:57:12.281Z,12.61
2022-10-11T22:59:38.069Z,12.59
2022-10-11T23:02:03.745Z,12.54
2022-10-11T23:04:29.509Z,12.50
2022-10-11T23:06:55.196Z,12.51
2022-10-11T23:09:21.042Z,12.50
2022-10-11T23:11:47.086Z,12.48
2022-10-11T23:14:13.000Z,12.48
2022-10-11T23:16:38.684Z,12.47
2022-10-11T23:19:04.466Z,12.47
2022-10-11T23:21:30.147Z,12.49
2022-10-11T23:23:55.966Z,12.48
2022-10-11T23:26:21.714Z,12.43
2022-10-11T23:28:47.423Z,12.37
2022-10-11T23:31:16.022Z,12.23
2022-10-11T23:33:42.940Z,12.16
2022-10-11T23:36:16.280Z,12.13
2022-10-11T23:38:42.236Z,12.12
2022-10-11T23:41:07.908Z,12.08
2022-10-11T23:43:33.710Z,12.04
2022-10-11T23:45:59.946Z,11.96
2022-10-11T23:48:25.701Z,11.93
2022-10-11T23:50:51.436Z,11.93
2022-10-11T23:53:17.161Z,11.97
2022-10-11T23:55:42.901Z,12.01
2022-10-11T23:58:08.687Z,12.07
